createdAt,value
2023-05-10T00:00:13.566Z,9.40
2023-05-10T00:01:13.526Z,12.80
2023-05-10T00:02:13.759Z,10.20
2023-05-10T00:03:13.551Z,10.50
2023-05-10T00:04:13.616Z,11.10
2023-05-10T00:05:13.416Z,11.30
2023-05-10T00:06:14.851Z,11.90
2023-05-10T00:07:13.361Z,14.90
2023-05-10T00:08:13.351Z,9.80
2023-05-10T00:09:13.362Z,9.50
2023-05-10T00:10:13.552Z,11.20
2023-05-10T00:11:13.358Z,13.00
2023-05-10T00:12:13.265Z,13.00
2023-05-10T00:13:13.366Z,11.80
2023-05-10T00:14:13.299Z,15.50
2023-05-10T00:15:13.222Z,12.20
2023-05-10T00:16:13.328Z,11.30
2023-05-10T00:17:13.265Z,11.10
2023-05-10T00:18:13.223Z,10.50
2023-05-10T00:19:13.313Z,14.40
2023-05-10T00:20:13.232Z,10.00
2023-05-10T00:21:13.243Z,10.90
2023-05-10T00:22:13.253Z,11.00
2023-05-10T00:23:13.132Z,12.20
2023-05-10T00:24:13.150Z,14.10
2023-05-10T00:25:13.251Z,11.60
2023-05-10T00:26:13.126Z,15.40
2023-05-10T00:27:13.192Z,12.00
2023-05-10T00:28:13.087Z,13.90
2023-05-10T00:29:13.142Z,15.30
2023-05-10T00:30:13.229Z,11.20
2023-05-10T00:31:13.066Z,14.80
2023-05-10T00:32:13.193Z,13.50
2023-05-10T00:33:13.037Z,14.10
2023-05-10T00:34:13.134Z,15.90
2023-05-10T00:35:13.055Z,13.70
2023-05-10T00:36:13.086Z,13.50
2023-05-10T00:37:13.001Z,13.50
2023-05-10T00:38:12.996Z,13.60
2023-05-10T00:39:12.975Z,13.20
2023-05-10T00:40:13.045Z,16.10
2023-05-10T00:41:13.012Z,12.40
2023-05-10T00:42:13.087Z,14.30
2023-05-10T00:43:12.948Z,15.40
2023-05-10T00:44:12.960Z,14.50
2023-05-10T00:45:13.026Z,13.40
2023-05-10T00:46:13.022Z,12.20
2023-05-10T00:47:12.966Z,12.50
2023-05-10T00:48:12.901Z,12.90
2023-05-10T00:49:12.877Z,13.60
2023-05-10T00:50:12.963Z,12.40
2023-05-10T00:51:14.940Z,11.80
2023-05-10T00:52:12.859Z,11.20
2023-05-10T00:53:12.865Z,12.80
2023-05-10T00:54:12.842Z,12.70
2023-05-10T00:55:33.804Z,14.40
2023-05-10T00:56:12.812Z,14.20
2023-05-10T00:57:12.815Z,15.70
2023-05-10T00:58:12.919Z,11.10
2023-05-10T00:59:12.766Z,12.70
2023-05-10T01:00:12.825Z,12.20
2023-05-10T01:01:12.837Z,10.30
2023-05-10T01:02:12.796Z,11.50
2023-05-10T01:03:12.840Z,12.30
2023-05-10T01:04:12.745Z,12.30
2023-05-10T01:05:12.748Z,11.10
2023-05-10T01:06:13.289Z,11.40
2023-05-10T01:07:12.697Z,8.10
2023-05-10T01:08:12.653Z,12.30
2023-05-10T01:09:12.781Z,8.00
2023-05-10T01:10:12.739Z,8.40
2023-05-10T01:11:12.727Z,8.40
2023-05-10T01:12:12.673Z,8.40
2023-05-10T01:13:12.732Z,8.50
2023-05-10T01:14:12.695Z,8.20
2023-05-10T01:15:12.652Z,7.20
2023-05-10T01:16:12.640Z,6.40
2023-05-10T01:17:13.620Z,7.20
2023-05-10T01:18:12.567Z,5.80
2023-05-10T01:19:12.649Z,7.10
2023-05-10T01:20:12.510Z,7.50
2023-05-10T01:21:12.660Z,5.70
2023-05-10T01:22:12.576Z,7.00
2023-05-10T01:23:12.586Z,5.40
2023-05-10T01:24:12.566Z,6.60
2023-05-10T01:25:12.517Z,7.10
2023-05-10T01:26:12.465Z,9.90
2023-05-10T01:27:12.442Z,8.60
2023-05-10T01:28:12.452Z,8.30
2023-05-10T01:29:12.465Z,8.00
2023-05-10T01:30:15.934Z,10.70
2023-05-10T01:31:12.481Z,9.50
2023-05-10T01:32:12.420Z,9.70
2023-05-10T01:33:12.438Z,9.70
2023-05-10T01:34:12.433Z,11.00
2023-05-10T01:35:12.406Z,12.30
2023-05-10T01:36:12.398Z,11.60
2023-05-10T01:37:12.367Z,11.20
2023-05-10T01:38:12.323Z,10.70
2023-05-10T01:39:12.594Z,4.50
2023-05-10T01:40:12.493Z,1.00
2023-05-10T01:41:12.393Z,1.00
2023-05-10T01:42:12.409Z,0.90
2023-05-10T01:43:12.291Z,1.20
2023-05-10T01:44:13.141Z,0.70
2023-05-10T01:45:12.262Z,1.70
2023-05-10T01:46:12.366Z,0.90
2023-05-10T01:47:12.252Z,1.70
2023-05-10T01:48:13.715Z,0.80
2023-05-10T01:49:12.277Z,0.70
2023-05-10T01:50:12.346Z,0.70
2023-05-10T01:51:12.241Z,0.60
2023-05-10T01:52:12.227Z,0.60
2023-05-10T01:53:12.270Z,0.90
2023-05-10T01:54:12.237Z,0.60
2023-05-10T01:55:12.272Z,0.60
2023-05-10T01:56:12.193Z,0.60
2023-05-10T01:57:12.183Z,0.90
2023-05-10T01:58:12.180Z,0.60
2023-05-10T01:59:12.197Z,0.60
2023-05-10T02:00:12.126Z,0.60
2023-05-10T02:01:12.182Z,0.70
2023-05-10T02:02:12.177Z,0.80
2023-05-10T02:03:12.208Z,1.00
2023-05-10T02:04:12.166Z,0.60
2023-05-10T02:05:12.128Z,0.60
2023-05-10T02:06:12.060Z,0.60
2023-05-10T02:07:12.170Z,0.70
2023-05-10T02:08:12.080Z,0.70
2023-05-10T02:09:12.097Z,0.80
2023-05-10T02:10:12.127Z,0.70
2023-05-10T02:11:11.973Z,0.70
2023-05-10T02:12:12.047Z,0.60
2023-05-10T02:13:12.005Z,0.70
2023-05-10T02:14:13.448Z,0.90
2023-05-10T02:15:12.022Z,1.00
2023-05-10T02:16:12.060Z,0.60
2023-05-10T02:17:11.967Z,0.80
2023-05-10T02:18:11.962Z,0.60
2023-05-10T02:19:11.979Z,0.80
2023-05-10T02:20:11.964Z,0.90
2023-05-10T02:21:11.889Z,1.20
2023-05-10T02:22:11.920Z,1.20
2023-05-10T02:23:11.886Z,2.00
2023-05-10T02:24:11.839Z,0.80
2023-05-10T02:25:13.367Z,0.90
2023-05-10T02:26:33.050Z,0.80
2023-05-10T02:27:11.905Z,1.10
2023-05-10T02:28:11.844Z,0.80
2023-05-10T02:29:11.861Z,0.60
2023-05-10T02:30:11.825Z,0.70
2023-05-10T02:31:11.897Z,1.00
2023-05-10T02:32:11.893Z,0.60
2023-05-10T02:33:11.755Z,0.70
2023-05-10T02:34:11.724Z,0.60
2023-05-10T02:35:11.828Z,0.60
2023-05-10T02:36:11.740Z,0.80
2023-05-10T02:37:11.737Z,0.70
2023-05-10T02:38:11.684Z,0.70
2023-05-10T02:39:11.677Z,0.60
2023-05-10T02:40:11.690Z,0.70
2023-05-10T02:41:11.646Z,2.10
2023-05-10T02:42:11.721Z,0.70
2023-05-10T02:43:11.652Z,0.60
2023-05-10T02:44:11.670Z,0.70
2023-05-10T02:45:11.624Z,0.90
2023-05-10T02:46:11.689Z,2.00
2023-05-10T02:47:12.000Z,0.60
2023-05-10T02:48:11.643Z,0.60
2023-05-10T02:49:11.628Z,0.70
2023-05-10T02:50:11.680Z,0.60
2023-05-10T02:51:11.688Z,0.70
2023-05-10T02:52:11.509Z,0.90
2023-05-10T02:53:11.571Z,0.60
2023-05-10T02:54:11.590Z,0.70
2023-05-10T02:55:11.520Z,0.60
2023-05-10T02:56:11.485Z,0.70
2023-05-10T02:57:11.505Z,0.60
2023-05-10T02:58:11.492Z,0.70
2023-05-10T02:59:11.456Z,0.70
2023-05-10T03:00:11.500Z,0.60
2023-05-10T03:01:11.469Z,0.70
2023-05-10T03:02:11.449Z,0.60
2023-05-10T03:03:11.418Z,0.70
2023-05-10T03:04:11.497Z,0.60
2023-05-10T03:05:11.395Z,0.90
2023-05-10T03:06:12.854Z,0.70
2023-05-10T03:07:11.422Z,0.70
2023-05-10T03:08:11.419Z,0.90
2023-05-10T03:09:11.386Z,0.60
2023-05-10T03:10:11.354Z,1.00
2023-05-10T03:11:11.360Z,0.60
2023-05-10T03:12:11.357Z,0.90
2023-05-10T03:13:11.454Z,1.00
2023-05-10T03:14:11.356Z,1.50
2023-05-10T03:15:11.336Z,0.80
2023-05-10T03:16:11.354Z,0.70
2023-05-10T03:17:11.328Z,0.70
2023-05-10T03:18:11.315Z,0.70
2023-05-10T03:19:11.266Z,0.90
2023-05-10T03:20:11.268Z,0.60
2023-05-10T03:21:11.271Z,0.70
2023-05-10T03:22:11.298Z,0.60
2023-05-10T03:23:11.243Z,0.70
2023-05-10T03:24:11.227Z,0.60
2023-05-10T03:25:11.516Z,0.70
2023-05-10T03:42:24.202Z,0.70
2023-05-10T03:43:20.811Z,0.80
2023-05-10T03:44:20.812Z,0.70
2023-05-10T03:45:20.780Z,0.70
2023-05-10T03:46:21.128Z,0.90
2023-05-10T03:47:20.774Z,0.60
2023-05-10T03:48:20.768Z,0.60
2023-05-10T03:49:20.806Z,0.60
2023-05-10T03:50:20.773Z,0.90
2023-05-10T03:51:20.770Z,0.80
2023-05-10T03:52:20.727Z,0.60
2023-05-10T03:53:20.733Z,0.60
2023-05-10T03:54:20.695Z,0.80
2023-05-10T03:55:20.690Z,0.70
2023-05-10T03:56:20.678Z,0.70
2023-05-10T03:57:22.120Z,0.60
2023-05-10T03:58:20.665Z,1.00
2023-05-10T03:59:20.752Z,0.90
2023-05-10T04:00:20.662Z,0.60
2023-05-10T04:01:20.696Z,0.60
2023-05-10T04:02:20.745Z,0.90
2023-05-10T04:03:20.759Z,0.80
2023-05-10T04:04:22.060Z,0.90
2023-05-10T04:05:20.627Z,0.60
2023-05-10T04:06:20.709Z,0.70
2023-05-10T04:07:20.554Z,0.70
2023-05-10T04:08:20.584Z,0.70
2023-05-10T04:09:20.567Z,0.90
2023-05-10T04:10:20.591Z,0.70
2023-05-10T04:11:20.539Z,1.10
2023-05-10T04:12:20.582Z,0.90
2023-05-10T04:13:20.619Z,0.70
2023-05-10T04:14:20.520Z,0.70
2023-05-10T04:15:20.503Z,0.90
2023-05-10T04:16:20.657Z,0.60
2023-05-10T04:17:20.511Z,1.20
2023-05-10T04:18:20.480Z,1.20
2023-05-10T04:19:20.476Z,0.70
2023-05-10T04:20:20.447Z,1.50
2023-05-10T04:21:20.430Z,0.70
2023-05-10T04:22:20.489Z,0.70
2023-05-10T04:23:20.428Z,0.70
2023-05-10T04:24:20.448Z,1.10
2023-05-10T04:25:20.405Z,0.60
2023-05-10T04:26:20.444Z,1.10
2023-05-10T04:27:20.643Z,0.90
2023-05-10T04:28:20.385Z,0.70
2023-05-10T04:29:20.383Z,1.30
2023-05-10T04:30:20.391Z,0.80
2023-05-10T04:31:41.334Z,0.70
2023-05-10T04:32:30.331Z,1.00
2023-05-10T04:33:20.303Z,0.60
2023-05-10T04:34:20.291Z,0.70
2023-05-10T04:35:20.294Z,0.80
2023-05-10T04:36:20.226Z,1.00
2023-05-10T04:37:20.266Z,0.80
2023-05-10T04:38:21.693Z,0.70
2023-05-10T04:39:20.217Z,1.10
2023-05-10T04:40:20.193Z,1.20
2023-05-10T04:41:20.207Z,1.00
2023-05-10T04:42:20.216Z,0.90
2023-05-10T04:43:20.176Z,0.70
2023-05-10T04:44:20.166Z,1.00
2023-05-10T04:45:20.162Z,1.10
2023-05-10T04:46:20.186Z,1.00
2023-05-10T04:47:20.170Z,0.60
2023-05-10T04:48:20.126Z,0.70
2023-05-10T04:49:20.109Z,0.80
2023-05-10T04:50:20.117Z,0.80
2023-05-10T04:51:20.120Z,0.90
2023-05-10T04:52:20.090Z,0.80
2023-05-10T04:53:21.527Z,1.30
2023-05-10T04:54:20.051Z,1.50
2023-05-10T04:55:20.042Z,0.70
2023-05-10T04:56:20.066Z,0.80
2023-05-10T04:57:21.320Z,0.70
2023-05-10T04:58:20.027Z,1.10
2023-05-10T04:59:19.989Z,1.70
2023-05-10T05:00:19.993Z,1.10
2023-05-10T05:01:20.019Z,1.40
2023-05-10T05:02:20.073Z,0.80
2023-05-10T05:03:20.064Z,1.10
2023-05-10T05:04:19.970Z,1.20
2023-05-10T05:05:19.978Z,1.20
2023-05-10T05:06:19.980Z,0.90
2023-05-10T05:07:19.940Z,1.30
2023-05-10T05:08:19.922Z,1.30
2023-05-10T05:09:19.926Z,0.80
2023-05-10T05:10:20.054Z,0.80
2023-05-10T05:11:20.011Z,1.10
2023-05-10T05:12:19.887Z,1.00
2023-05-10T05:13:19.932Z,2.00
2023-05-10T05:14:19.858Z,2.10
2023-05-10T05:15:19.837Z,1.20
2023-05-10T05:16:19.851Z,0.90
2023-05-10T05:17:19.811Z,0.80
2023-05-10T05:18:19.822Z,2.10
2023-05-10T05:19:19.805Z,2.90
2023-05-10T05:20:19.899Z,3.30
2023-05-10T05:21:19.779Z,3.90
2023-05-10T05:22:19.810Z,1.60
2023-05-10T05:23:19.763Z,2.30
2023-05-10T05:24:20.089Z,3.70
2023-05-10T05:25:19.753Z,2.50
2023-05-10T05:26:19.730Z,2.10
2023-05-10T05:27:19.704Z,1.00
2023-05-10T05:28:19.704Z,1.80
2023-05-10T05:29:19.750Z,1.00
2023-05-10T05:30:19.671Z,2.00
2023-05-10T05:31:19.690Z,1.00
2023-05-10T05:32:19.692Z,1.40
2023-05-10T07:06:01.948Z,8.40
2023-05-10T07:06:41.789Z,5.70
2023-05-10T07:07:40.946Z,3.00
2023-05-10T07:08:40.926Z,4.10
2023-05-10T07:09:40.883Z,7.20
2023-05-10T07:10:41.210Z,4.00
2023-05-10T07:11:40.866Z,3.50
2023-05-10T07:12:40.865Z,7.70
2023-05-10T07:13:40.890Z,5.10
2023-05-10T07:14:40.855Z,6.10
2023-05-10T07:15:40.822Z,4.30
2023-05-10T07:16:40.975Z,5.00
2023-05-10T07:17:43.143Z,8.10
2023-05-10T07:18:40.834Z,7.00
2023-05-10T07:19:40.740Z,9.70
2023-05-10T07:20:40.732Z,5.30
2023-05-10T07:21:40.713Z,4.40
2023-05-10T07:22:40.697Z,4.20
2023-05-10T07:23:42.473Z,5.80
2023-05-10T07:24:40.683Z,2.40
2023-05-10T07:25:40.753Z,5.10
2023-05-10T07:26:40.740Z,7.10
2023-05-10T07:27:40.652Z,4.70
2023-05-10T07:28:40.640Z,6.90
2023-05-10T07:29:40.643Z,8.40
2023-05-10T07:30:40.668Z,4.90
2023-05-10T07:31:40.685Z,5.90
2023-05-10T07:32:40.774Z,2.80
2023-05-10T07:33:40.712Z,6.70
2023-05-10T07:34:40.688Z,3.90
2023-05-10T08:43:50.812Z,5.10
2023-05-10T08:44:49.692Z,5.80
2023-05-10T08:45:49.134Z,3.60
2023-05-10T08:46:49.207Z,3.80
2023-05-10T08:47:49.240Z,7.40
2023-05-10T08:48:49.121Z,5.40
2023-05-10T08:49:49.220Z,4.80
2023-05-10T08:50:49.111Z,3.70
2023-05-10T08:51:50.560Z,5.00
2023-05-10T08:52:49.114Z,4.00
2023-05-10T08:53:49.089Z,4.30
2023-05-10T08:54:49.147Z,3.50
2023-05-10T08:55:49.023Z,4.10
2023-05-10T08:56:49.925Z,5.40
2023-05-10T08:57:49.844Z,6.20
2023-05-10T08:58:48.915Z,7.30
2023-05-10T08:59:48.967Z,5.10
2023-05-10T09:00:48.995Z,6.10
2023-05-10T09:01:48.877Z,5.40
2023-05-10T09:02:48.899Z,5.90
2023-05-10T09:03:48.939Z,3.20
2023-05-10T09:04:48.913Z,5.10
2023-05-10T09:05:48.880Z,7.80
2023-05-10T09:06:49.033Z,3.90
2023-05-10T09:07:48.842Z,1.90
2023-05-10T09:08:48.907Z,4.00
2023-05-10T09:09:48.812Z,2.90
2023-05-10T09:10:48.823Z,2.80
2023-05-10T09:11:48.829Z,4.10
2023-05-10T09:12:48.970Z,4.20
2023-05-10T09:13:48.856Z,3.50
2023-05-10T09:14:48.786Z,3.50
2023-05-10T09:15:48.768Z,5.50
2023-05-10T09:16:48.813Z,7.20
2023-05-10T09:17:48.764Z,24.10
2023-05-10T09:18:48.816Z,29.40
2023-05-10T09:19:48.764Z,37.10
2023-05-10T09:20:48.787Z,38.50
2023-05-10T09:21:48.742Z,35.20
2023-05-10T09:22:48.772Z,29.60
2023-05-10T09:23:48.921Z,28.40
2023-05-10T09:24:48.639Z,35.30
2023-05-10T09:25:48.634Z,27.70
2023-05-10T09:26:48.697Z,35.10
2023-05-10T09:27:48.681Z,29.50
2023-05-10T09:28:48.612Z,28.90
2023-05-10T09:29:48.643Z,28.90
2023-05-10T09:30:48.596Z,30.90
2023-05-10T09:31:48.749Z,27.80
2023-05-10T09:32:48.599Z,30.30
2023-05-10T09:33:48.583Z,29.20
2023-05-10T09:34:50.031Z,27.80
2023-05-10T09:35:48.565Z,23.60
2023-05-10T09:36:48.629Z,26.00
2023-05-10T09:37:48.551Z,25.40
2023-05-10T09:38:48.529Z,21.90
2023-05-10T09:39:48.479Z,23.10
2023-05-10T09:40:48.494Z,26.00
2023-05-10T09:41:48.498Z,24.70
2023-05-10T09:42:48.455Z,24.00
2023-05-10T09:43:48.472Z,20.00
2023-05-10T09:44:48.394Z,19.40
2023-05-10T09:45:48.416Z,22.90
2023-05-10T09:46:48.517Z,17.10
2023-05-10T09:47:48.492Z,19.20
2023-05-10T09:48:50.218Z,18.00
2023-05-10T09:49:48.331Z,18.60
2023-05-10T09:50:58.374Z,18.30
2023-05-10T09:51:48.370Z,21.30
2023-05-10T09:52:48.362Z,23.60
2023-05-10T09:53:48.324Z,19.50
2023-05-10T09:54:48.286Z,18.90
2023-05-10T09:55:48.290Z,20.80
2023-05-10T09:56:48.314Z,22.00
2023-05-10T09:57:48.353Z,23.40
2023-05-10T09:58:48.264Z,19.70
2023-05-10T09:59:48.327Z,17.30
2023-05-10T10:00:48.318Z,17.50
2023-05-10T10:01:48.290Z,18.70
2023-05-10T10:02:48.295Z,19.70
2023-05-10T10:03:48.410Z,18.90
2023-05-10T10:04:49.712Z,20.30
2023-05-10T10:05:48.284Z,20.60
2023-05-10T10:06:48.237Z,18.10
2023-05-10T10:07:48.253Z,19.70
2023-05-10T10:08:48.267Z,23.60
2023-05-10T10:09:48.288Z,20.10
2023-05-10T10:10:48.387Z,21.90
2023-05-10T10:11:48.495Z,22.20
2023-05-10T10:12:48.592Z,21.50
2023-05-10T10:13:48.328Z,25.90
2023-05-10T10:14:48.219Z,28.00
2023-05-10T10:15:48.288Z,29.20
2023-05-10T10:17:05.030Z,25.20
2023-05-10T10:17:49.142Z,24.80
2023-05-10T10:18:48.121Z,29.60
2023-05-10T10:19:48.469Z,24.80
2023-05-10T10:20:48.223Z,21.40
2023-05-10T10:21:48.157Z,27.40
2023-05-10T10:22:48.155Z,24.30
2023-05-10T10:23:48.118Z,23.50
2023-05-10T10:24:48.074Z,26.80
2023-05-10T10:25:48.189Z,26.90
2023-05-10T10:26:49.457Z,25.60
2023-05-10T10:27:48.166Z,30.20
2023-05-10T10:28:47.966Z,29.00
2023-05-10T10:29:48.086Z,30.10
2023-05-10T10:30:48.024Z,30.50
2023-05-10T10:31:49.222Z,29.40
2023-05-10T10:32:48.772Z,28.80
2023-05-10T10:33:48.442Z,31.40
2023-05-10T10:34:48.035Z,30.40
2023-05-10T10:35:47.911Z,31.40
2023-05-10T10:36:48.376Z,28.70
2023-05-10T10:37:48.060Z,28.30
2023-05-10T10:38:47.937Z,30.60
2023-05-10T10:39:47.864Z,29.10
2023-05-10T10:40:47.986Z,26.40
2023-05-10T10:41:47.965Z,28.80
2023-05-10T10:42:48.956Z,25.20
2023-05-10T10:43:48.116Z,24.60
2023-05-10T10:44:47.806Z,24.40
2023-05-10T10:45:47.814Z,24.00
2023-05-10T10:46:47.853Z,24.70
2023-05-10T10:47:47.868Z,28.70
2023-05-10T10:48:47.870Z,27.50
2023-05-10T10:49:47.878Z,26.40
2023-05-10T10:50:49.196Z,25.40
2023-05-10T10:51:47.858Z,28.40
2023-05-10T10:52:47.690Z,26.90
2023-05-10T10:53:47.759Z,28.00
2023-05-10T10:54:47.764Z,28.40
2023-05-10T10:55:47.814Z,28.20
2023-05-10T10:56:47.804Z,28.10
2023-05-10T10:57:47.696Z,28.70
2023-05-10T10:58:47.684Z,26.10
2023-05-10T10:59:47.652Z,30.70
2023-05-10T11:00:47.642Z,31.20
2023-05-10T11:01:47.622Z,29.40
2023-05-10T11:02:47.636Z,32.10
2023-05-10T11:03:47.574Z,29.80
2023-05-10T11:04:47.809Z,30.50
2023-05-10T11:05:47.623Z,28.40
2023-05-10T11:06:47.572Z,27.30
2023-05-10T11:07:47.691Z,27.50
2023-05-10T11:08:47.590Z,25.30
2023-05-10T11:09:47.591Z,26.00
2023-05-10T11:10:47.575Z,22.90
2023-05-10T11:11:47.602Z,25.30
2023-05-10T11:12:47.573Z,27.40
2023-05-10T11:13:49.286Z,26.40
2023-05-10T11:14:47.585Z,24.80
2023-05-10T11:15:47.504Z,26.50
2023-05-10T11:16:47.563Z,25.10
2023-05-10T11:17:47.588Z,24.00
2023-05-10T11:18:49.156Z,26.30
2023-05-10T11:19:47.509Z,24.00
2023-05-10T11:20:47.478Z,26.40
2023-05-10T11:21:47.390Z,26.70
2023-05-10T11:22:47.520Z,28.40
2023-05-10T11:23:47.561Z,29.70
2023-05-10T11:24:49.629Z,27.00
2023-05-10T11:25:47.473Z,28.20
2023-05-10T11:26:47.513Z,28.30
2023-05-10T11:27:47.338Z,23.70
2023-05-10T11:28:47.431Z,27.50
2023-05-10T11:29:47.389Z,28.10
2023-05-10T11:30:47.439Z,26.40
2023-05-10T11:31:47.442Z,26.30
2023-05-10T11:32:47.441Z,31.50
2023-05-10T11:33:47.327Z,32.30
2023-05-10T11:34:47.512Z,25.60
2023-05-10T11:35:47.258Z,29.10
2023-05-10T11:36:47.588Z,29.10
2023-05-10T11:37:47.365Z,25.10
2023-05-10T11:38:47.226Z,24.90
2023-05-10T11:39:47.272Z,25.60
2023-05-10T11:40:47.433Z,24.50
2023-05-10T11:41:47.329Z,27.30
2023-05-10T11:42:47.206Z,29.00
2023-05-10T11:43:47.183Z,30.50
2023-05-10T11:44:47.191Z,25.10
2023-05-10T11:45:47.228Z,29.20
2023-05-10T11:46:47.241Z,26.50
2023-05-10T11:47:47.637Z,25.00
2023-05-10T11:48:47.255Z,20.50
2023-05-10T11:49:47.131Z,23.30
2023-05-10T11:50:47.251Z,21.30
2023-05-10T11:51:47.321Z,19.10
2023-05-10T11:52:47.256Z,24.60
2023-05-10T11:53:47.324Z,20.00
2023-05-10T11:54:47.390Z,21.00
2023-05-10T11:55:47.048Z,18.90
2023-05-10T11:56:47.076Z,20.90
2023-05-10T11:57:47.072Z,21.70
2023-05-10T11:58:47.008Z,21.20
2023-05-10T11:59:47.000Z,17.20
2023-05-10T12:00:47.051Z,19.50
2023-05-10T12:01:47.090Z,20.50
2023-05-10T12:02:47.131Z,16.90
2023-05-10T12:03:47.172Z,16.80
2023-05-10T12:04:47.074Z,21.40
2023-05-10T12:05:46.973Z,21.00
2023-05-10T12:06:47.014Z,21.20
2023-05-10T12:07:47.018Z,20.70
2023-05-10T12:08:46.942Z,19.80
2023-05-10T12:09:46.901Z,18.90
2023-05-10T12:10:46.916Z,22.20
2023-05-10T12:11:46.962Z,19.00
2023-05-10T12:12:46.873Z,20.00
2023-05-10T12:13:46.787Z,19.20
2023-05-10T12:14:46.946Z,19.30
2023-05-10T12:15:46.936Z,20.10
2023-05-10T12:16:47.223Z,19.80
2023-05-10T12:17:46.833Z,22.60
2023-05-10T12:18:46.862Z,22.90
2023-05-10T12:19:46.825Z,23.40
2023-05-10T12:20:46.756Z,20.90
2023-05-10T12:21:46.735Z,18.50
2023-05-10T12:22:46.873Z,21.70
2023-05-10T12:23:46.840Z,22.00
2023-05-10T12:24:46.818Z,20.50
2023-05-10T12:25:46.744Z,21.50
2023-05-10T12:26:46.719Z,21.20
2023-05-10T12:27:46.722Z,17.90
2023-05-10T12:28:47.278Z,18.60
2023-05-10T12:29:46.818Z,20.60
2023-05-10T12:30:46.688Z,19.80
2023-05-10T12:31:46.761Z,18.10
2023-05-10T12:32:46.760Z,18.60
2023-05-10T12:33:46.691Z,20.90
2023-05-10T12:34:46.713Z,16.60
2023-05-10T12:35:46.638Z,17.80
2023-05-10T12:36:46.671Z,19.40
2023-05-10T12:37:46.621Z,15.40
2023-05-10T12:38:46.636Z,15.30
2023-05-10T12:39:46.605Z,15.70
2023-05-10T12:40:46.586Z,16.80
2023-05-10T12:41:46.566Z,17.70
2023-05-10T12:42:46.624Z,16.50
2023-05-10T12:43:46.544Z,17.60
2023-05-10T12:44:46.539Z,17.30
2023-05-10T12:45:46.583Z,18.70
2023-05-10T12:46:46.512Z,17.70
2023-05-10T12:47:46.525Z,19.10
2023-05-10T12:48:46.493Z,18.40
2023-05-10T12:49:47.460Z,20.00
2023-05-10T12:50:46.520Z,20.90
2023-05-10T12:51:46.565Z,16.60
2023-05-10T12:52:46.482Z,20.70
2023-05-10T12:53:48.015Z,19.30
2023-05-10T12:54:46.410Z,18.10
2023-05-10T12:55:46.417Z,20.00
2023-05-10T12:56:46.365Z,18.40
2023-05-10T12:57:46.480Z,20.70
2023-05-10T12:58:46.370Z,19.80
2023-05-10T12:59:46.394Z,18.90
2023-05-10T13:00:46.401Z,18.20
2023-05-10T13:01:46.494Z,13.30
2023-05-10T13:02:46.411Z,14.20
2023-05-10T13:03:46.382Z,12.80
2023-05-10T13:04:46.722Z,16.50
2023-05-10T13:05:46.333Z,12.00
2023-05-10T13:06:46.299Z,12.40
2023-05-10T13:07:46.270Z,12.50
2023-05-10T13:08:46.315Z,12.10
2023-05-10T13:09:46.311Z,13.20
2023-05-10T13:10:46.260Z,11.50
2023-05-10T13:11:46.263Z,12.20
2023-05-10T13:12:46.267Z,16.30
2023-05-10T13:13:46.182Z,13.40
2023-05-10T13:14:46.183Z,13.90
2023-05-10T13:15:46.200Z,11.50
2023-05-10T13:16:46.365Z,13.80
2023-05-10T13:17:46.240Z,12.30
2023-05-10T13:18:46.150Z,13.90
2023-05-10T13:19:46.177Z,10.30
2023-05-10T13:20:46.169Z,8.50
2023-05-10T13:21:46.109Z,7.10
2023-05-10T13:22:46.086Z,5.80
2023-05-10T13:23:46.086Z,9.90
2023-05-10T13:24:46.192Z,8.50
2023-05-10T13:25:46.157Z,8.30
2023-05-10T13:26:46.113Z,10.20
2023-05-10T13:27:46.052Z,8.10
2023-05-10T13:28:46.056Z,9.80
2023-05-10T13:29:47.046Z,7.70
2023-05-10T13:30:46.016Z,9.30
2023-05-10T13:31:46.060Z,9.80
2023-05-10T13:32:46.023Z,9.50
2023-05-10T13:33:46.022Z,10.30
2023-05-10T13:34:46.028Z,12.30
2023-05-10T13:35:46.031Z,10.70
2023-05-10T13:36:45.917Z,12.80
2023-05-10T13:37:45.977Z,12.70
2023-05-10T13:38:45.947Z,13.00
2023-05-10T13:39:46.321Z,13.20
2023-05-10T13:40:45.902Z,16.50
2023-05-10T13:41:45.989Z,13.50
2023-05-10T13:42:45.953Z,14.40
2023-05-10T13:43:45.941Z,15.40
2023-05-10T13:44:45.918Z,13.00
2023-05-10T13:45:45.929Z,14.10
2023-05-10T13:46:45.974Z,15.30
2023-05-10T13:47:45.907Z,14.50
2023-05-10T13:48:45.850Z,13.30
2023-05-10T13:49:45.848Z,17.30
2023-05-10T13:50:46.765Z,13.80
2023-05-10T13:51:45.814Z,16.60
2023-05-10T13:52:45.835Z,13.50
2023-05-10T13:53:45.839Z,13.40
2023-05-10T13:54:45.849Z,17.00
2023-05-10T13:55:45.795Z,15.40
2023-05-10T13:56:45.889Z,16.10
2023-05-10T13:57:46.440Z,15.40
2023-05-10T13:58:45.830Z,15.30
2023-05-10T13:59:45.784Z,15.80
2023-05-10T14:00:45.769Z,15.60
2023-05-10T14:01:45.818Z,14.20
2023-05-10T14:02:45.955Z,15.50
2023-05-10T14:03:45.794Z,18.20
2023-05-10T14:04:45.697Z,16.90
2023-05-10T14:05:45.714Z,14.60
2023-05-10T14:06:45.673Z,14.40
2023-05-10T14:07:45.700Z,14.70
2023-05-10T14:08:45.759Z,14.80
2023-05-10T14:09:45.724Z,16.70
2023-05-10T14:10:45.866Z,17.30
2023-05-10T14:11:45.663Z,16.20
2023-05-10T14:12:45.845Z,16.50
2023-05-10T14:13:45.684Z,19.20
2023-05-10T14:14:45.742Z,18.40
2023-05-10T14:15:45.725Z,18.20
2023-05-10T14:16:45.960Z,18.50
2023-05-10T14:17:45.761Z,18.80
2023-05-10T14:18:45.702Z,18.20
2023-05-10T14:19:45.542Z,17.90
2023-05-10T14:20:45.504Z,16.40
2023-05-10T14:21:45.719Z,20.60
2023-05-10T14:22:45.615Z,20.60
2023-05-10T14:23:45.521Z,21.50
2023-05-10T14:24:45.813Z,18.70
2023-05-10T14:25:45.570Z,19.00
2023-05-10T14:26:45.466Z,21.60
2023-05-10T14:27:45.469Z,19.00
2023-05-10T14:28:45.439Z,22.80
2023-05-10T14:29:45.503Z,18.50
2023-05-10T14:30:45.580Z,18.70
2023-05-10T14:31:45.454Z,22.70
2023-05-10T14:32:45.431Z,23.30
2023-05-10T14:33:45.547Z,17.80
2023-05-10T14:34:45.344Z,21.90
2023-05-10T14:35:45.441Z,20.60
2023-05-10T14:36:45.346Z,22.40
2023-05-10T14:37:45.281Z,21.50
2023-05-10T14:38:45.341Z,18.10
2023-05-10T14:39:45.262Z,19.40
2023-05-10T14:40:46.862Z,16.50
2023-05-10T14:41:45.238Z,19.60
2023-05-10T14:45:45.387Z,17.70
2023-05-10T14:46:24.380Z,18.50
2023-05-10T14:47:24.367Z,18.10
2023-05-10T14:48:24.326Z,16.60
2023-05-10T14:49:24.499Z,16.20
2023-05-10T14:50:35.763Z,15.70
2023-05-10T14:51:25.575Z,16.00
2023-05-10T14:52:24.333Z,16.60
2023-05-10T14:53:24.286Z,18.00
2023-05-10T14:54:24.394Z,17.20
2023-05-10T14:55:24.282Z,17.80
2023-05-10T14:56:25.267Z,19.70
2023-05-10T14:57:24.181Z,17.70
2023-05-10T14:58:24.266Z,23.60
2023-05-10T14:59:24.348Z,20.90
2023-05-10T15:00:24.376Z,20.40
2023-05-10T15:01:24.256Z,23.50
2023-05-10T15:02:24.296Z,18.10
2023-05-10T15:03:24.429Z,26.50
2023-05-10T15:04:25.446Z,20.80
2023-05-10T15:05:24.154Z,18.20
2023-05-10T15:06:24.085Z,21.10
2023-05-10T15:07:24.167Z,22.90
2023-05-10T15:08:24.151Z,19.00
2023-05-10T15:09:24.108Z,21.30
2023-05-10T15:10:24.205Z,18.60
2023-05-10T15:11:24.065Z,19.00
2023-05-10T15:12:24.028Z,21.00
2023-05-10T15:13:24.028Z,23.00
2023-05-10T15:14:24.116Z,19.90
2023-05-10T15:15:24.108Z,20.90
2023-05-10T15:16:24.297Z,16.70
2023-05-10T15:17:24.126Z,18.60
2023-05-10T15:18:24.032Z,18.60
2023-05-10T15:19:23.983Z,17.90
2023-05-10T15:20:24.047Z,18.70
2023-05-10T15:21:24.071Z,17.10
2023-05-10T15:22:24.198Z,17.50
2023-05-10T15:23:24.009Z,17.60
2023-05-10T15:24:23.946Z,17.90
2023-05-10T15:25:23.875Z,18.60
2023-05-10T15:26:23.929Z,20.20
2023-05-10T15:27:23.926Z,17.20
2023-05-10T15:28:23.833Z,17.20
2023-05-10T15:29:23.879Z,17.50
2023-05-10T15:30:23.852Z,16.90
2023-05-10T15:31:23.902Z,18.40
2023-05-10T15:32:23.925Z,17.50
2023-05-10T15:33:23.844Z,18.40
2023-05-10T15:34:23.760Z,21.20
2023-05-10T15:35:23.876Z,19.40
2023-05-10T15:36:23.783Z,16.80
2023-05-10T15:37:23.780Z,19.60
2023-05-10T15:38:23.823Z,17.80
2023-05-10T15:39:23.879Z,17.90
2023-05-10T15:40:23.782Z,16.20
2023-05-10T15:41:23.881Z,17.80
2023-05-10T15:42:23.697Z,13.60
2023-05-10T15:43:23.675Z,11.10
2023-05-10T15:44:23.739Z,12.90
2023-05-10T15:45:23.693Z,13.50
2023-05-10T15:46:23.976Z,13.50
2023-05-10T15:47:23.712Z,11.20
2023-05-10T15:48:25.897Z,11.70
2023-05-10T15:49:25.207Z,10.00
2023-05-10T15:50:23.726Z,10.90
2023-05-10T15:51:23.677Z,10.50
2023-05-10T15:52:23.806Z,11.50
2023-05-10T15:53:23.753Z,11.10
2023-05-10T15:54:23.762Z,11.80
2023-05-10T15:55:24.268Z,12.30
2023-05-10T15:56:24.403Z,11.80
2023-05-10T15:57:23.676Z,15.00
2023-05-10T15:58:23.772Z,12.70
2023-05-10T15:59:23.756Z,11.80
2023-05-10T16:00:24.683Z,9.50
2023-05-10T16:01:23.716Z,11.00
2023-05-10T16:02:23.707Z,12.00